Hillerman, Illinois
Current Conditions -  °F | °C
As of 1:35 AM on Monday 22 Dec 2014 (Local Time) from KM30 Reporting Station
Overcast Overcast  
Wind Chill: 40°   Ceiling: 2600
Heat Index: 40°   Visibility: 10mi
Dew Point: 34°   Wind: 3mph
Humidity: 77%   Direction: 110°ESE
Pressure: 29.93"   Gusts: NA
Location:  37.2537°N, 89.0147°W
Report Text: KM30 220735Z AUTO 11003KT 10SM BKN026 OVC080 05/01 A2993 RMK AO2 T00470009
Loading
Personal Weather Stations






























Interactive Weather Map New forecast layout! Learn more

10-Day Weather Forecast

Advertisements
Track Severe Weather on mobile